Rudolph, Ohio
Current Conditions -  °F | °C
As of 12:53 AM on Thursday 23 Oct 2014 (Local Time) from KFDY Reporting Station
Broken Clouds Broken Clouds  
Wind Chill: 44°   Ceiling: 3000
Heat Index: 44°   Visibility: 10mi
Dew Point: 39°   Wind: 3mph
Humidity: 82%   Direction: 290°WNW
Pressure: 30.26"   Gusts: NA
Location:  41.3°N, 83.67°W
Report Text: KFDY 230453Z AUTO 29003KT 10SM BKN030 07/04 A3026 RMK AO2 SLP246 T00670039 401170061
Loading
Personal Weather Stations






























Interactive Weather Map
Tropical Storm Tracking
New forecast layout! Learn more

10-Day Weather Forecast

Advertisements
Track Severe Weather on mobile